Time;durP1;ratioP1;P1;durP2;ratioP2;P2;SDS_P1;SDS_P2;PMS_P1;PMS_P2;Temp;Humidity;BMP_temperature;BMP_pressure;BME280_temperature;BME280_humidity;BME280_pressure;Samples;Min_cycle;Max_cycle;Signal;HPM_P1;HPM_P2
2022/01/13 00:02:18;;;;;;;710.37;664.00;;;3.10;99.90;;;;;;5014947;28;20453;-81
2022/01/13 00:04:46;;;;;;;709.33;661.83;;;3.10;99.90;;;;;;4996265;28;20497;-81
2022/01/13 00:07:14;;;;;;;731.47;682.90;;;3.00;99.90;;;;;;5010539;28;20524;-81
2022/01/13 00:09:43;;;;;;;739.60;690.23;;;3.10;99.90;;;;;;5011960;28;20449;-81
2022/01/13 00:12:12;;;;;;;728.43;679.67;;;3.10;99.90;;;;;;5010170;28;20890;-81
2022/01/13 00:14:52;;;;;;;733.03;683.23;;;3.10;99.90;;;;;;4995944;28;20872;-81
2022/01/13 00:20:30;;;;;;;714.23;664.73;;;3.10;99.90;;;;;;4990381;28;20505;-81
2022/01/13 00:25:43;;;;;;;720.70;672.80;;;3.10;99.90;;;;;;5015731;28;20458;-81
2022/01/13 00:28:16;;;;;;;718.13;670.37;;;3.10;99.90;;;;;;5002981;28;20449;-81
2022/01/13 00:30:44;;;;;;;715.97;668.00;;;3.10;99.90;;;;;;5007855;28;20497;-81
2022/01/13 00:33:13;;;;;;;707.40;659.30;;;3.10;99.90;;;;;;5014972;28;20479;-81
2022/01/13 00:35:40;;;;;;;710.70;662.50;;;3.10;99.90;;;;;;5004342;28;20837;-80
2022/01/13 00:38:08;;;;;;;710.50;661.67;;;3.10;99.90;;;;;;4996518;28;20454;-81
2022/01/13 00:40:34;;;;;;;713.00;664.10;;;3.10;99.90;;;;;;5004672;28;20449;-81
2022/01/13 00:43:01;;;;;;;715.20;666.93;;;3.00;99.90;;;;;;5015861;28;20453;-81
2022/01/13 00:45:28;;;;;;;702.03;654.40;;;3.00;99.90;;;;;;5010619;28;20473;-81
2022/01/13 00:47:55;;;;;;;704.73;657.37;;;3.10;99.90;;;;;;5015216;28;20464;-81
2022/01/13 00:50:21;;;;;;;705.67;659.23;;;3.10;99.90;;;;;;5011038;28;20829;-81
2022/01/13 00:52:48;;;;;;;692.63;646.83;;;3.00;99.90;;;;;;5015094;28;20460;-81
2022/01/13 00:55:21;;;;;;;701.20;654.30;;;3.00;99.90;;;;;;4999409;28;20482;-81
2022/01/13 00:57:48;;;;;;;693.73;647.70;;;3.00;99.90;;;;;;4995736;28;20505;-81
2022/01/13 01:00:15;;;;;;;697.30;652.40;;;3.00;99.90;;;;;;5009387;28;20449;-81
2022/01/13 01:02:42;;;;;;;691.73;644.90;;;3.00;99.90;;;;;;5015609;28;20461;-81
2022/01/13 01:05:09;;;;;;;705.27;657.57;;;3.00;99.90;;;;;;5000978;28;20474;-81
2022/01/13 01:07:36;;;;;;;721.00;674.30;;;3.10;99.90;;;;;;4994928;28;20457;-81
2022/01/13 01:10:05;;;;;;;721.27;673.73;;;3.00;99.90;;;;;;4996331;28;20450;-81
2022/01/13 01:12:37;;;;;;;716.00;669.57;;;3.00;99.90;;;;;;4995624;28;20462;-81
2022/01/13 01:15:05;;;;;;;714.40;667.90;;;3.00;99.90;;;;;;5010879;28;20496;-81
2022/01/13 01:17:34;;;;;;;707.27;660.43;;;3.00;99.90;;;;;;5034576;28;20446;-81
2022/01/13 01:20:07;;;;;;;717.30;669.90;;;2.90;99.90;;;;;;5034135;28;20458;-81
2022/01/13 01:22:43;;;;;;;720.87;672.80;;;3.00;99.90;;;;;;5034720;28;20466;-81
2022/01/13 01:25:36;;;;;;;715.10;667.17;;;2.90;99.90;;;;;;5016648;28;20469;-81
2022/01/13 01:28:11;;;;;;;721.80;673.87;;;2.90;99.90;;;;;;5015435;28;20449;-81
2022/01/13 01:30:41;;;;;;;723.70;675.70;;;2.90;99.90;;;;;;5013360;28;21069;-81
2022/01/13 01:33:13;;;;;;;736.83;688.60;;;2.90;99.90;;;;;;4994984;28;20537;-82
2022/01/13 01:35:39;;;;;;;735.67;687.17;;;2.90;99.90;;;;;;5000373;28;20476;-82
2022/01/13 01:38:06;;;;;;;731.77;683.63;;;2.90;99.90;;;;;;5014785;28;20461;-81
2022/01/13 01:40:33;;;;;;;726.67;678.40;;;2.90;99.90;;;;;;5009520;28;20830;-81
2022/01/13 01:43:00;;;;;;;723.03;673.63;;;2.90;99.90;;;;;;4994361;28;20459;-81
2022/01/13 01:45:33;;;;;;;727.60;679.27;;;2.90;99.90;;;;;;4997991;28;20497;-81
2022/01/13 01:48:03;;;;;;;712.60;665.10;;;2.90;99.90;;;;;;5011914;28;20481;-81
2022/01/13 01:50:35;;;;;;;721.13;674.03;;;2.90;99.90;;;;;;4994911;28;20500;-81
2022/01/13 01:53:03;;;;;;;721.97;675.17;;;2.90;99.90;;;;;;4997181;28;20523;-81
2022/01/13 01:55:29;;;;;;;716.17;669.17;;;2.90;99.90;;;;;;5013983;28;20473;-82
2022/01/13 01:57:56;;;;;;;718.43;671.13;;;2.90;99.90;;;;;;5012363;28;20460;-81
2022/01/13 02:00:26;;;;;;;726.27;677.67;;;2.90;99.90;;;;;;4998290;28;20946;-81
2022/01/13 02:02:56;;;;;;;720.27;672.50;;;2.90;99.90;;;;;;4998916;28;20954;-81
2022/01/13 02:05:23;;;;;;;725.83;677.37;;;2.90;99.90;;;;;;4998698;28;20470;-81
2022/01/13 02:07:49;;;;;;;739.37;689.17;;;2.90;99.90;;;;;;4998658;28;20465;-81
2022/01/13 02:10:17;;;;;;;737.03;686.03;;;2.90;99.90;;;;;;5017834;28;20831;-81
2022/01/13 02:12:49;;;;;;;737.10;686.07;;;2.90;99.90;;;;;;5018380;28;20448;-81
2022/01/13 02:15:33;;;;;;;746.20;694.60;;;2.90;99.90;;;;;;5014461;28;20504;-82
2022/01/13 02:18:07;;;;;;;758.63;706.43;;;2.90;99.90;;;;;;5004494;28;20461;-81
2022/01/13 02:21:00;;;;;;;756.40;704.10;;;2.90;99.90;;;;;;5001274;28;20458;-81
2022/01/13 02:23:36;;;;;;;759.80;706.60;;;2.90;99.90;;;;;;4990073;28;20446;-82
2022/01/13 02:26:03;;;;;;;759.93;707.50;;;2.80;99.90;;;;;;5001219;28;20469;-81
2022/01/13 02:28:31;;;;;;;759.80;708.50;;;2.90;99.90;;;;;;5000375;28;20462;-81
2022/01/13 02:30:58;;;;;;;757.27;706.77;;;2.90;99.90;;;;;;4997977;28;20457;-81
2022/01/13 02:33:24;;;;;;;748.20;698.00;;;2.90;99.90;;;;;;5000136;28;20457;-80
2022/01/13 02:35:51;;;;;;;740.90;692.03;;;2.90;99.90;;;;;;4999654;28;20474;-81
2022/01/13 02:38:20;;;;;;;740.93;690.00;;;2.90;99.90;;;;;;4997805;28;20454;-82
2022/01/13 02:40:53;;;;;;;734.10;685.00;;;2.80;99.90;;;;;;5003976;28;20839;-81
2022/01/13 02:43:20;;;;;;;730.37;680.77;;;2.90;99.90;;;;;;5017244;28;20457;-81
2022/01/13 02:46:03;;;;;;;726.57;678.90;;;2.90;99.90;;;;;;5016894;28;20469;-81
2022/01/13 02:48:30;;;;;;;728.87;680.67;;;2.80;99.90;;;;;;5005953;28;20830;-81
2022/01/13 02:50:57;;;;;;;737.03;688.23;;;2.80;99.90;;;;;;5003871;28;20456;-81
2022/01/13 02:53:26;;;;;;;734.43;685.27;;;2.80;99.90;;;;;;5017251;28;20851;-82
2022/01/13 02:55:56;;;;;;;720.97;673.87;;;2.80;99.90;;;;;;5011809;28;20469;-81
2022/01/13 02:58:23;;;;;;;714.70;667.17;;;2.80;99.90;;;;;;4997338;28;20881;-81
2022/01/13 03:00:50;;;;;;;711.17;663.20;;;2.80;99.90;;;;;;5001185;28;20449;-81
2022/01/13 03:03:18;;;;;;;722.57;672.67;;;2.80;99.90;;;;;;5017341;28;20453;-81
2022/01/13 03:05:45;;;;;;;715.73;668.60;;;2.80;99.90;;;;;;5015264;28;20480;-82
2022/01/13 03:08:12;;;;;;;719.97;670.67;;;2.70;99.90;;;;;;5009784;28;20449;-81
2022/01/13 03:10:40;;;;;;;715.10;667.67;;;2.70;99.90;;;;;;5016171;28;20448;-81
2022/01/13 03:13:08;;;;;;;725.03;676.83;;;2.80;99.90;;;;;;5005018;28;20452;-81
2022/01/13 03:15:34;;;;;;;708.87;659.80;;;2.70;99.90;;;;;;4996951;28;20482;-81
2022/01/13 03:18:01;;;;;;;719.77;671.60;;;2.80;99.90;;;;;;5007278;28;20464;-81
2022/01/13 03:20:28;;;;;;;730.50;681.23;;;2.70;99.90;;;;;;5017596;28;20453;-81
2022/01/13 03:22:55;;;;;;;724.87;675.07;;;2.70;99.90;;;;;;5010169;28;20454;-81
2022/01/13 03:25:23;;;;;;;743.80;692.20;;;2.70;99.90;;;;;;4996644;28;20477;-80
2022/01/13 03:27:57;;;;;;;728.20;678.97;;;2.80;99.90;;;;;;5001631;28;20449;-83
2022/01/13 03:30:24;;;;;;;729.67;679.70;;;2.70;99.90;;;;;;5014689;28;20457;-81
2022/01/13 03:32:50;;;;;;;724.90;675.30;;;2.70;99.90;;;;;;5012627;28;20458;-80
2022/01/13 03:35:17;;;;;;;739.73;688.43;;;2.60;99.90;;;;;;4996724;28;20481;-81
2022/01/13 03:37:44;;;;;;;746.37;695.40;;;2.70;99.90;;;;;;4999849;28;21134;-81
2022/01/13 03:40:12;;;;;;;721.73;671.87;;;2.60;99.90;;;;;;5016951;28;20457;-82
2022/01/13 03:42:39;;;;;;;747.73;695.57;;;2.60;99.90;;;;;;5014724;28;20626;-81
2022/01/13 03:45:08;;;;;;;728.90;678.20;;;2.60;99.90;;;;;;5016599;28;20470;-80
2022/01/13 03:47:35;;;;;;;752.17;700.03;;;2.60;99.90;;;;;;5015707;28;20460;-81
2022/01/13 03:50:02;;;;;;;754.20;701.97;;;2.60;99.90;;;;;;4996287;28;20481;-79
2022/01/13 03:53:02;;;;;;;750.53;698.97;;;2.60;99.90;;;;;;4996705;28;20462;-81
2022/01/13 03:56:06;;;;;;;743.57;691.73;;;2.60;99.90;;;;;;5005209;28;20860;-81
2022/01/13 03:59:33;;;;;;;763.53;711.47;;;2.50;99.90;;;;;;5016046;28;20840;-81
2022/01/13 04:02:07;;;;;;;757.17;704.37;;;2.50;99.90;;;;;;5004469;28;20455;-82
2022/01/13 04:04:36;;;;;;;766.97;713.70;;;2.50;99.90;;;;;;4999382;28;20473;-81
2022/01/13 04:07:14;;;;;;;778.10;723.50;;;2.40;99.90;;;;;;5004938;28;20449;-81
2022/01/13 04:10:27;;;;;;;751.60;698.53;;;2.40;99.90;;;;;;5011405;28;20468;-79
2022/01/13 04:12:54;;;;;;;756.83;703.13;;;2.40;99.90;;;;;;5000518;28;20448;-81
2022/01/13 04:15:24;;;;;;;770.83;714.47;;;2.40;99.90;;;;;;4997450;28;20490;-81
2022/01/13 04:17:52;;;;;;;780.80;725.03;;;2.30;99.90;;;;;;5006529;28;20828;-81
2022/01/13 04:20:19;;;;;;;754.50;701.70;;;2.30;99.90;;;;;;5032385;28;20448;-82
2022/01/13 04:22:48;;;;;;;765.40;712.10;;;2.30;99.90;;;;;;5030312;28;20958;-82
2022/01/13 04:25:20;;;;;;;775.00;719.90;;;2.30;99.90;;;;;;5015416;28;20842;-80
2022/01/13 04:27:48;;;;;;;775.83;718.77;;;2.20;99.90;;;;;;5016547;28;20454;-82
2022/01/13 04:30:44;;;;;;;784.83;729.23;;;2.20;99.90;;;;;;5014576;28;20540;-81
2022/01/13 04:33:13;;;;;;;771.27;714.57;;;2.20;99.90;;;;;;5015766;28;20532;-81
2022/01/13 04:35:40;;;;;;;774.87;717.67;;;2.20;99.90;;;;;;5015087;28;20982;-81
2022/01/13 04:38:06;;;;;;;784.10;727.03;;;2.10;99.90;;;;;;5014902;28;20484;-82
2022/01/13 04:40:35;;;;;;;781.87;724.20;;;2.20;99.90;;;;;;5007426;28;20459;-82
2022/01/13 04:43:02;;;;;;;783.40;726.13;;;2.20;99.90;;;;;;5003373;28;20453;-81
2022/01/13 04:45:28;;;;;;;780.53;722.53;;;2.10;99.90;;;;;;5006740;28;20471;-82
2022/01/13 04:47:56;;;;;;;786.03;727.50;;;2.10;99.90;;;;;;4997032;28;20451;-82
2022/01/13 04:50:27;;;;;;;789.77;729.57;;;2.10;99.90;;;;;;5012704;28;20460;-82
2022/01/13 04:52:53;;;;;;;782.73;724.37;;;2.10;99.90;;;;;;5001503;28;20450;-81
2022/01/13 04:55:25;;;;;;;792.23;732.07;;;2.10;99.90;;;;;;5013769;28;20587;-82
2022/01/13 04:57:52;;;;;;;794.10;733.50;;;2.20;99.90;;;;;;5013925;28;20834;-82
2022/01/13 05:00:20;;;;;;;796.20;735.37;;;2.10;99.90;;;;;;5013200;28;20809;-83
2022/01/13 05:02:47;;;;;;;814.93;753.37;;;2.10;99.90;;;;;;4999285;28;20464;-81
2022/01/13 05:05:14;;;;;;;809.27;747.37;;;2.10;99.90;;;;;;4994162;28;20470;-82
2022/01/13 05:07:42;;;;;;;801.50;739.27;;;2.00;99.90;;;;;;5005842;28;20454;-82
2022/01/13 05:10:10;;;;;;;783.93;723.47;;;2.20;99.90;;;;;;5002356;28;20453;-83
2022/01/13 05:12:41;;;;;;;798.80;737.00;;;2.10;99.90;;;;;;4998228;28;20959;-82
2022/01/13 05:15:13;;;;;;;780.03;720.13;;;2.20;99.90;;;;;;4997027;28;21057;-84
2022/01/13 05:20:36;;;;;;;795.20;733.00;;;2.20;99.90;;;;;;5010032;28;20445;-82
2022/01/13 05:23:14;;;;;;;791.27;728.57;;;2.20;99.90;;;;;;5014107;28;20453;-82
2022/01/13 05:25:45;;;;;;;789.43;726.13;;;2.10;99.90;;;;;;5014348;28;20461;-82
2022/01/13 05:28:18;;;;;;;804.87;742.40;;;2.20;99.90;;;;;;5012907;28;20446;-82
2022/01/13 05:30:45;;;;;;;791.97;730.47;;;2.10;99.90;;;;;;5008209;28;20473;-82
2022/01/13 05:33:12;;;;;;;781.43;719.90;;;2.20;99.90;;;;;;5012914;28;20443;-82
2022/01/13 05:35:40;;;;;;;787.37;725.37;;;2.20;99.90;;;;;;5002158;28;20485;-82
2022/01/13 05:38:11;;;;;;;804.70;741.40;;;2.10;99.90;;;;;;5007250;28;20805;-82
2022/01/13 05:40:40;;;;;;;793.67;731.23;;;2.30;99.90;;;;;;4998497;28;20582;-83
2022/01/13 05:43:07;;;;;;;792.20;730.97;;;2.10;99.90;;;;;;5005318;28;20457;-82
2022/01/13 05:45:34;;;;;;;785.57;728.93;;;2.10;99.90;;;;;;5010937;28;20473;-82
2022/01/13 05:48:03;;;;;;;793.77;734.53;;;2.10;99.90;;;;;;4996270;28;20557;-82
2022/01/13 05:50:31;;;;;;;792.83;732.50;;;2.00;99.90;;;;;;4996516;28;20537;-82
2022/01/13 05:52:58;;;;;;;787.90;726.80;;;2.00;99.90;;;;;;5008048;28;20449;-82
2022/01/13 05:55:25;;;;;;;790.73;729.47;;;2.10;99.90;;;;;;5001030;28;20486;-82
2022/01/13 05:57:53;;;;;;;793.37;732.17;;;2.10;99.90;;;;;;5002627;28;20474;-82
2022/01/13 06:00:22;;;;;;;795.63;732.13;;;1.90;99.90;;;;;;5023417;28;20531;-82
2022/01/13 06:02:50;;;;;;;792.60;728.60;;;1.90;99.90;;;;;;5030827;28;20536;-83
2022/01/13 06:05:18;;;;;;;800.37;734.97;;;1.90;99.90;;;;;;5011151;28;20473;-82
2022/01/13 06:07:45;;;;;;;809.70;744.93;;;1.90;99.90;;;;;;5012378;28;20464;-84
2022/01/13 06:10:18;;;;;;;786.20;723.13;;;2.00;99.90;;;;;;4999915;28;20454;-85
2022/01/13 06:12:45;;;;;;;791.57;729.53;;;2.00;99.90;;;;;;5011588;28;20481;-84
2022/01/13 06:15:15;;;;;;;795.87;733.93;;;1.80;99.90;;;;;;5014195;28;20853;-84
2022/01/13 06:17:43;;;;;;;796.67;732.27;;;1.90;99.90;;;;;;5014951;28;20453;-83
2022/01/13 06:20:12;;;;;;;795.23;735.63;;;1.90;99.90;;;;;;5006204;28;20454;-83
2022/01/13 06:22:40;;;;;;;784.07;726.50;;;1.80;99.90;;;;;;4996664;28;20501;-84
2022/01/13 06:25:09;;;;;;;785.70;726.30;;;1.80;99.90;;;;;;5010816;28;20466;-84
2022/01/13 06:27:36;;;;;;;798.57;737.97;;;1.80;99.90;;;;;;5007957;28;20458;-82
2022/01/13 06:30:04;;;;;;;813.93;750.67;;;1.80;99.90;;;;;;5013212;28;20450;-83
2022/01/13 06:32:32;;;;;;;798.30;734.67;;;1.80;99.90;;;;;;5012664;28;20460;-83
2022/01/13 06:34:59;;;;;;;796.73;736.93;;;1.80;99.90;;;;;;5013421;28;20476;-83
2022/01/13 06:37:26;;;;;;;782.00;724.80;;;1.80;99.90;;;;;;5013042;28;20457;-83
2022/01/13 06:39:53;;;;;;;785.83;726.27;;;1.70;99.90;;;;;;5013450;28;20449;-82
2022/01/13 06:42:20;;;;;;;798.67;734.77;;;1.70;99.90;;;;;;5013416;28;20457;-83
2022/01/13 06:44:46;;;;;;;797.53;736.03;;;1.70;99.90;;;;;;5014634;28;20475;-82
2022/01/13 06:47:13;;;;;;;781.93;726.50;;;1.70;99.90;;;;;;5017166;28;20464;-83
2022/01/13 06:49:41;;;;;;;788.97;728.97;;;1.70;99.90;;;;;;5016706;28;20457;-83
2022/01/13 06:52:08;;;;;;;799.60;737.07;;;1.60;99.90;;;;;;5017382;28;20457;-84
2022/01/13 06:54:35;;;;;;;797.93;733.83;;;1.60;99.90;;;;;;5016726;28;20499;-82
2022/01/13 06:57:02;;;;;;;813.43;747.53;;;1.70;99.90;;;;;;5016389;28;20449;-84
2022/01/13 06:59:29;;;;;;;787.97;729.00;;;1.70;99.90;;;;;;5016536;28;20453;-82
2022/01/13 07:01:58;;;;;;;799.47;736.50;;;1.70;99.90;;;;;;5017442;28;20466;-83
2022/01/13 07:04:24;;;;;;;798.70;733.30;;;1.70;99.90;;;;;;5016608;28;20468;-84
2022/01/13 07:06:52;;;;;;;808.10;741.20;;;1.70;99.90;;;;;;5016404;28;20449;-83
2022/01/13 07:09:21;;;;;;;793.83;727.97;;;1.70;99.90;;;;;;5016228;28;20461;-84
2022/01/13 07:11:48;;;;;;;807.93;738.43;;;1.70;99.90;;;;;;5016563;28;20494;-83
2022/01/13 07:14:15;;;;;;;810.40;741.90;;;1.70;99.90;;;;;;5016385;28;20496;-83
2022/01/13 07:16:43;;;;;;;814.23;745.07;;;1.70;99.90;;;;;;5016610;28;20484;-81
2022/01/13 07:19:12;;;;;;;818.37;746.23;;;1.70;99.90;;;;;;5015980;28;20979;-81
2022/01/13 07:21:40;;;;;;;803.70;735.90;;;1.60;99.90;;;;;;5016663;28;20941;-81
2022/01/13 07:24:08;;;;;;;812.77;744.47;;;1.60;99.90;;;;;;5016763;28;20457;-80
2022/01/13 07:26:36;;;;;;;802.23;735.07;;;1.70;99.90;;;;;;5017080;28;20449;-81
2022/01/13 07:29:04;;;;;;;808.07;736.67;;;1.60;99.90;;;;;;5016143;28;20457;-81
2022/01/13 07:31:31;;;;;;;810.83;740.13;;;1.60;99.90;;;;;;5016577;28;20871;-81
2022/01/13 07:33:58;;;;;;;797.20;724.93;;;1.50;99.90;;;;;;5016169;28;20841;-81
2022/01/13 07:36:25;;;;;;;792.23;723.67;;;1.50;99.90;;;;;;5016452;28;20480;-81
2022/01/13 07:38:52;;;;;;;791.57;725.43;;;1.50;99.90;;;;;;5015903;28;20954;-80
2022/01/13 07:41:20;;;;;;;791.10;724.40;;;1.50;99.90;;;;;;5016568;28;20453;-81
2022/01/13 07:43:52;;;;;;;787.17;718.97;;;1.30;99.90;;;;;;5016154;28;20476;-82
2022/01/13 07:46:20;;;;;;;802.43;730.33;;;1.30;99.90;;;;;;5016109;28;20888;-81
2022/01/13 07:48:47;;;;;;;791.10;719.50;;;1.40;99.90;;;;;;5015931;28;20457;-82
2022/01/13 07:51:13;;;;;;;795.67;723.30;;;1.30;99.90;;;;;;5016258;28;20457;-82
2022/01/13 07:53:40;;;;;;;809.80;734.07;;;1.30;99.90;;;;;;5016099;28;20460;-82
2022/01/13 07:56:07;;;;;;;789.23;717.30;;;1.40;99.90;;;;;;5015004;28;20481;-82
2022/01/13 07:58:35;;;;;;;787.73;715.80;;;1.30;99.90;;;;;;5015563;28;20464;-83
2022/01/13 08:01:04;;;;;;;796.80;721.60;;;1.30;99.90;;;;;;5015721;28;20819;-82
2022/01/13 08:03:30;;;;;;;792.83;719.20;;;1.30;99.90;;;;;;5014613;28;20459;-82
2022/01/13 08:05:58;;;;;;;789.63;714.23;;;1.30;99.90;;;;;;5014533;28;20846;-82
2022/01/13 08:08:25;;;;;;;1010.20;731.17;;;1.30;99.90;;;;;;5014315;28;20464;-80
2022/01/13 08:10:52;;;;;;;785.20;712.27;;;1.30;99.90;;;;;;5014778;28;20479;-81
2022/01/13 08:13:19;;;;;;;787.90;717.93;;;1.20;99.90;;;;;;5014293;28;20457;-82
2022/01/13 08:15:50;;;;;;;788.70;717.60;;;1.30;99.90;;;;;;5015101;28;20492;-83
2022/01/13 08:21:01;;;;;;;794.70;721.60;;;1.20;99.90;;;;;;5015331;28;20842;-82
2022/01/13 08:23:28;;;;;;;791.60;721.03;;;1.20;99.90;;;;;;5014858;28;20457;-81
2022/01/13 08:25:55;;;;;;;781.80;714.70;;;1.20;99.90;;;;;;5014696;28;20472;-82
2022/01/13 08:28:22;;;;;;;790.53;721.33;;;1.20;99.90;;;;;;5013995;28;20648;-81
2022/01/13 08:30:50;;;;;;;788.80;718.23;;;1.10;99.90;;;;;;5014993;28;20453;-80
2022/01/13 08:33:17;;;;;;;789.80;714.93;;;1.20;99.90;;;;;;5015149;28;20464;-82
2022/01/13 08:35:44;;;;;;;790.67;717.20;;;1.20;99.90;;;;;;5014779;28;20572;-84
2022/01/13 08:38:16;;;;;;;793.47;718.40;;;1.30;99.90;;;;;;5014819;28;20560;-84
2022/01/13 08:40:43;;;;;;;790.33;715.80;;;1.30;99.90;;;;;;5007486;28;20458;-82
2022/01/13 08:43:10;;;;;;;784.33;715.33;;;1.30;99.90;;;;;;5010113;28;20470;-82
2022/01/13 08:45:36;;;;;;;788.40;718.33;;;1.30;99.90;;;;;;5010265;28;20466;-82
2022/01/13 08:48:05;;;;;;;785.57;717.77;;;1.30;99.90;;;;;;5014770;28;20838;-82
2022/01/13 08:50:32;;;;;;;790.77;720.67;;;1.30;99.90;;;;;;5004204;28;20460;-82
2022/01/13 08:52:59;;;;;;;785.97;715.17;;;1.40;99.90;;;;;;5009703;28;20457;-82
2022/01/13 08:55:26;;;;;;;770.73;704.27;;;1.50;99.90;;;;;;4995938;28;20469;-82
2022/01/13 08:57:53;;;;;;;767.37;704.17;;;1.40;99.90;;;;;;4999513;28;20966;-82
2022/01/13 09:00:20;;;;;;;777.40;712.93;;;1.40;99.90;;;;;;5011005;28;20450;-82
2022/01/13 09:02:46;;;;;;;784.03;716.40;;;1.50;99.90;;;;;;5014635;28;20832;-82
2022/01/13 09:05:17;;;;;;;781.30;713.97;;;1.50;99.90;;;;;;5012351;28;20843;-82
2022/01/13 09:07:44;;;;;;;777.80;713.00;;;1.50;99.90;;;;;;5011264;28;20453;-82
2022/01/13 09:10:12;;;;;;;780.07;715.20;;;1.60;99.90;;;;;;5011684;28;20453;-82
2022/01/13 09:12:39;;;;;;;775.33;711.53;;;1.60;99.90;;;;;;5012988;28;20455;-83
2022/01/13 09:15:16;;;;;;;767.40;702.90;;;1.60;99.90;;;;;;4997405;28;20470;-83
2022/01/13 09:17:44;;;;;;;767.67;705.00;;;1.60;99.90;;;;;;5017261;28;20444;-84
2022/01/13 09:20:12;;;;;;;771.50;708.10;;;1.80;99.90;;;;;;5033861;28;20471;-83
2022/01/13 09:22:40;;;;;;;762.93;701.23;;;1.80;99.90;;;;;;5015892;28;20460;-82
2022/01/13 09:25:14;;;;;;;758.57;695.70;;;2.00;99.90;;;;;;5014589;28;20474;-83
2022/01/13 09:27:41;;;;;;;739.83;681.17;;;2.10;99.90;;;;;;4999119;28;20446;-84
2022/01/13 09:30:12;;;;;;;693.57;642.63;;;2.10;99.90;;;;;;5005839;28;20481;-84
2022/01/13 09:32:42;;;;;;;671.97;623.87;;;2.10;99.90;;;;;;5016796;28;20449;-84
2022/01/13 09:35:09;;;;;;;683.97;634.00;;;2.00;99.90;;;;;;5007145;28;20474;-85
2022/01/13 09:37:37;;;;;;;699.87;649.27;;;2.00;99.90;;;;;;5002106;28;20478;-85
2022/01/13 09:40:07;;;;;;;712.10;658.93;;;1.90;99.90;;;;;;4996187;28;20464;-85
2022/01/13 09:42:36;;;;;;;678.87;627.87;;;2.00;99.90;;;;;;4995055;28;20454;-83
2022/01/13 09:45:05;;;;;;;684.07;635.27;;;2.10;99.90;;;;;;4994844;28;20478;-83
2022/01/13 09:47:32;;;;;;;672.77;624.73;;;2.10;99.90;;;;;;5014531;28;20553;-83
2022/01/13 09:50:00;;;;;;;664.67;618.03;;;2.20;99.90;;;;;;5013778;28;20457;-84
2022/01/13 09:52:28;;;;;;;663.23;618.13;;;2.20;99.90;;;;;;5013223;28;20453;-84
2022/01/13 09:54:55;;;;;;;640.03;596.10;;;2.30;99.90;;;;;;5005972;28;20493;-85
2022/01/13 09:57:23;;;;;;;608.23;568.13;;;2.30;99.90;;;;;;4995782;28;20533;-84
2022/01/13 09:59:50;;;;;;;597.63;559.80;;;2.20;99.90;;;;;;4994395;28;20473;-85
2022/01/13 10:02:17;;;;;;;581.33;544.73;;;2.30;99.90;;;;;;4996522;28;20454;-84
2022/01/13 10:04:48;;;;;;;581.43;545.13;;;2.40;99.90;;;;;;5011121;28;20473;-85
2022/01/13 10:07:29;;;;;;;602.03;562.13;;;2.50;99.90;;;;;;5004115;28;20461;-84
2022/01/13 10:09:58;;;;;;;596.00;556.90;;;2.60;99.90;;;;;;4994269;28;20450;-83
2022/01/13 10:12:33;;;;;;;605.13;567.30;;;2.60;99.90;;;;;;5004876;28;20457;-83
2022/01/13 10:17:47;;;;;;;623.63;578.83;;;2.40;99.90;;;;;;4994493;28;20568;-82
2022/01/13 10:20:16;;;;;;;640.17;592.90;;;2.40;99.90;;;;;;5007529;28;20449;-81
2022/01/13 10:22:43;;;;;;;641.47;592.87;;;2.30;99.90;;;;;;5017745;28;20457;-81
2022/01/13 10:25:26;;;;;;;648.97;603.10;;;2.20;99.90;;;;;;5006112;28;20986;-82
2022/01/13 10:27:54;;;;;;;659.60;615.23;;;2.30;99.90;;;;;;4998483;28;20481;-81
2022/01/13 10:30:25;;;;;;;669.70;623.50;;;2.30;99.90;;;;;;5009397;28;20456;-82
2022/01/13 10:32:53;;;;;;;666.83;616.23;;;2.20;99.90;;;;;;5017945;28;20468;-82
2022/01/13 10:35:22;;;;;;;670.90;620.10;;;2.40;99.90;;;;;;5012531;28;20480;-83
2022/01/13 10:37:58;;;;;;;664.57;613.40;;;2.50;99.90;;;;;;5016244;28;20477;-82
2022/01/13 10:40:30;;;;;;;663.33;613.17;;;2.70;99.90;;;;;;5002561;28;20536;-82
2022/01/13 10:43:10;;;;;;;632.10;584.13;;;2.80;99.90;;;;;;4997352;28;20537;-83
2022/01/13 10:45:42;;;;;;;622.43;576.23;;;2.90;99.90;;;;;;5013947;28;20950;-82
2022/01/13 10:48:12;;;;;;;579.87;538.17;;;3.10;99.90;;;;;;5016707;28;20460;-82
2022/01/13 10:50:42;;;;;;;582.90;546.20;;;3.00;99.90;;;;;;4997863;28;20454;-82
2022/01/13 10:53:11;;;;;;;587.33;547.83;;;3.00;99.90;;;;;;4997602;28;20472;-83
2022/01/13 10:55:44;;;;;;;595.57;556.03;;;3.00;99.90;;;;;;5012213;28;20481;-82
2022/01/13 10:58:15;;;;;;;586.97;546.73;;;3.00;99.90;;;;;;5016999;28;20456;-84
2022/01/13 11:00:43;;;;;;;565.40;531.57;;;3.10;99.90;;;;;;4998741;28;20453;-82
2022/01/13 11:03:12;;;;;;;466.00;439.90;;;3.30;99.90;;;;;;4999367;28;20457;-83
2022/01/13 11:05:41;;;;;;;474.13;446.17;;;3.20;99.90;;;;;;5017282;28;20476;-82
2022/01/13 11:08:10;;;;;;;447.50;420.97;;;3.40;99.90;;;;;;5014686;28;20451;-82
2022/01/13 11:10:40;;;;;;;380.67;359.70;;;3.50;99.90;;;;;;4997373;28;20552;-82
2022/01/13 11:13:16;;;;;;;342.53;323.50;;;3.60;99.90;;;;;;4997780;28;20542;-82
2022/01/13 11:15:49;;;;;;;387.00;365.20;;;3.60;99.90;;;;;;5016042;28;20857;-82
2022/01/13 11:18:17;;;;;;;415.37;392.87;;;3.60;99.90;;;;;;5013949;28;21017;-83
2022/01/13 11:20:44;;;;;;;358.70;340.20;;;3.50;99.90;;;;;;4998067;28;20457;-80
2022/01/13 11:23:11;;;;;;;355.87;336.87;;;3.70;99.90;;;;;;4996625;28;20947;-80
2022/01/13 11:25:38;;;;;;;347.87;329.10;;;3.70;99.90;;;;;;5016598;28;20473;-80
2022/01/13 11:28:08;;;;;;;321.80;305.10;;;3.80;99.90;;;;;;5016203;28;20453;-80
2022/01/13 11:30:35;;;;;;;307.30;290.80;;;3.80;99.90;;;;;;4996284;28;20835;-80
2022/01/13 11:33:03;;;;;;;255.40;241.17;;;3.90;99.90;;;;;;4995840;28;20454;-80
2022/01/13 11:35:34;;;;;;;218.20;205.50;;;4.00;99.90;;;;;;5014459;28;20484;-80
2022/01/13 11:38:04;;;;;;;279.77;265.83;;;4.00;99.90;;;;;;5008514;28;20485;-80
2022/01/13 11:40:34;;;;;;;249.73;235.97;;;3.90;99.90;;;;;;5000829;28;20978;-80
2022/01/13 11:43:03;;;;;;;173.17;160.43;;;4.10;99.90;;;;;;5006537;28;20457;-80
2022/01/13 11:45:36;;;;;;;86.40;61.83;;;4.60;99.90;;;;;;5015715;28;20481;-80
2022/01/13 11:48:20;;;;;;;81.57;70.70;;;5.50;98.40;;;;;;5004079;28;20963;-80
2022/01/13 11:50:51;;;;;;;76.10;61.27;;;5.90;93.20;;;;;;4995698;28;20512;-80
2022/01/13 11:53:28;;;;;;;64.00;39.53;;;6.40;90.00;;;;;;5006351;28;20445;-80
2022/01/13 11:55:58;;;;;;;62.27;36.50;;;6.60;86.80;;;;;;5012919;28;20861;-80
2022/01/13 11:58:31;;;;;;;46.70;27.53;;;6.90;81.10;;;;;;5015120;28;20482;-80
2022/01/13 12:01:08;;;;;;;58.53;31.77;;;7.00;75.40;;;;;;5003588;28;20550;-81
2022/01/13 12:03:37;;;;;;;51.80;29.60;;;7.20;76.30;;;;;;4996296;28;20456;-80
2022/01/13 12:06:05;;;;;;;60.80;31.97;;;7.30;72.70;;;;;;5006991;28;20512;-81
2022/01/13 12:08:44;;;;;;;51.33;26.00;;;7.50;72.70;;;;;;5014449;28;20456;-81
2022/01/13 12:11:35;;;;;;;46.87;25.83;;;7.80;69.70;;;;;;5003083;28;20458;-81
2022/01/13 12:14:02;;;;;;;42.43;25.30;;;8.60;68.80;;;;;;4999494;28;20453;-80
2022/01/13 12:16:54;;;;;;;38.13;21.87;;;9.00;66.40;;;;;;4998135;28;20493;-81
2022/01/13 12:19:31;;;;;;;32.27;21.10;;;9.30;61.40;;;;;;4998408;28;20499;-81
2022/01/13 12:22:04;;;;;;;30.27;19.50;;;10.00;55.50;;;;;;5007195;28;20815;-81
2022/01/13 12:24:51;;;;;;;28.60;18.33;;;9.90;53.50;;;;;;4997403;28;21020;-82
2022/01/13 12:27:20;;;;;;;29.50;17.77;;;9.80;54.80;;;;;;5007467;28;20465;-82
2022/01/13 12:29:49;;;;;;;23.97;16.70;;;10.40;50.90;;;;;;5015248;28;20449;-81
2022/01/13 12:32:33;;;;;;;25.97;16.40;;;10.70;46.50;;;;;;5015395;28;20454;-81
2022/01/13 12:35:02;;;;;;;28.20;17.03;;;10.90;45.20;;;;;;4996895;28;20999;-81
2022/01/13 12:37:31;;;;;;;25.93;17.07;;;11.30;45.10;;;;;;4995288;28;20570;-82
2022/01/13 12:40:09;;;;;;;28.80;17.70;;;10.60;44.40;;;;;;5011506;28;20483;-81
2022/01/13 12:42:39;;;;;;;25.27;15.83;;;10.10;44.00;;;;;;5015528;28;20465;-82
2022/01/13 12:47:53;;;;;;;25.97;16.20;;;10.30;45.70;;;;;;5007762;28;20442;-81
2022/01/13 12:50:24;;;;;;;23.57;16.10;;;10.80;46.40;;;;;;5014173;28;20922;-81